Time;durP1;ratioP1;P1;durP2;ratioP2;P2;SDS_P1;SDS_P2;PMS_P1;PMS_P2;Temp;Humidity;BMP_temperature;BMP_pressure;BME280_temperature;BME280_humidity;BME280_pressure;Samples;Min_cycle;Max_cycle;Signal;HPM_P1;HPM_P2
2022/11/25 00:01:26;;;;;;;;;;;;;;;;;;5094842;28;19957;-71
2022/11/25 00:03:52;;;;;;;;;;;;;;;;;;5096551;28;19912;-70
2022/11/25 00:06:18;;;;;;;;;;;;;;;;;;5096089;28;19915;-70
2022/11/25 00:08:44;;;;;;;;;;;;;;;;;;5096572;28;20022;-70
2022/11/25 00:11:10;;;;;;;;;;;;;;;;;;5095933;28;19915;-70
2022/11/25 00:13:36;;;;;;;;;;;;;;;;;;5095104;28;20378;-70
2022/11/25 00:16:02;;;;;;;;;;;;;;;;;;5096311;28;19908;-70
2022/11/25 00:18:28;;;;;;;;;;;;;;;;;;5094481;28;19930;-70
2022/11/25 00:20:53;;;;;;;;;;;;;;;;;;5096246;28;20340;-70
2022/11/25 00:23:19;;;;;;;;;;;;;;;;;;5096614;28;20006;-70
2022/11/25 00:25:45;;;;;;;;;;;;;;;;;;5095891;28;19908;-70
2022/11/25 00:28:11;;;;;;;;;;;;;;;;;;5095761;28;19978;-70
2022/11/25 00:30:37;;;;;;;;;;;;;;;;;;5094720;28;19961;-70
2022/11/25 00:33:03;;;;;;;;;;;;;;;;;;5095660;28;19912;-70
2022/11/25 00:35:29;;;;;;;;;;;;;;;;;;5094630;28;19910;-70
2022/11/25 00:37:55;;;;;;;;;;;;;;;;;;5095882;28;19908;-70
2022/11/25 00:40:21;;;;;;;;;;;;;;;;;;5095669;28;20399;-70
2022/11/25 00:45:31;;;;;;;;;;;;;;;;;;5095785;28;20426;-70
2022/11/25 00:47:57;;;;;;;;;;;;;;;;;;5095157;28;20365;-70
2022/11/25 00:50:23;;;;;;;;;;;;;;;;;;5096085;28;19912;-70
2022/11/25 00:52:49;;;;;;;;;;;;;;;;;;5096131;28;19908;-70
2022/11/25 00:55:15;;;;;;;;;;;;;;;;;;5095190;28;19916;-70
2022/11/25 00:57:41;;;;;;;;;;;;;;;;;;5095485;28;19908;-70
2022/11/25 01:00:07;;;;;;;;;;;;;;;;;;5094193;28;19909;-70
2022/11/25 01:02:33;;;;;;;;;;;;;;;;;;5095070;28;19919;-70
2022/11/25 01:04:59;;;;;;;;;;;;;;;;;;5095463;28;19922;-70
2022/11/25 01:07:25;;;;;;;;;;;;;;;;;;5094998;28;20348;-70
2022/11/25 01:09:51;;;;;;;;;;;;;;;;;;5095329;28;19931;-70
2022/11/25 01:12:17;;;;;;;;;;;;;;;;;;5094492;28;19915;-69
2022/11/25 01:14:43;;;;;;;;;;;;;;;;;;5093573;28;19908;-70
2022/11/25 01:17:09;;;;;;;;;;;;;;;;;;5095369;28;19953;-70
2022/11/25 01:19:39;;;;;;;;;;;;;;;;;;5095141;28;19908;-70
2022/11/25 01:22:05;;;;;;;;;;;;;;;;;;5093365;28;19908;-70
2022/11/25 01:24:31;;;;;;;;;;;;;;;;;;5094959;28;19908;-70
2022/11/25 01:26:57;;;;;;;;;;;;;;;;;;5093567;28;20364;-68
2022/11/25 01:29:23;;;;;;;;;;;;;;;;;;5094439;28;20279;-70
2022/11/25 01:31:49;;;;;;;;;;;;;;;;;;5095009;28;20340;-70
2022/11/25 01:34:14;;;;;;;;;;;;;;;;;;5094859;28;19931;-70
2022/11/25 01:36:40;;;;;;;;;;;;;;;;;;5094417;28;20349;-70
2022/11/25 01:39:06;;;;;;;;;;;;;;;;;;5094724;28;19946;-70
2022/11/25 01:41:32;;;;;;;;;;;;;;;;;;5094955;28;19908;-70
2022/11/25 01:43:58;;;;;;;;;;;;;;;;;;5092950;28;19916;-70
2022/11/25 01:46:24;;;;;;;;;;;;;;;;;;5094633;28;19909;-70
2022/11/25 01:48:50;;;;;;;;;;;;;;;;;;5094654;28;20368;-70
2022/11/25 01:51:16;;;;;;;;;;;;;;;;;;5094128;28;20284;-70
2022/11/25 01:53:42;;;;;;;;;;;;;;;;;;5094437;28;19908;-69
2022/11/25 01:56:08;;;;;;;;;;;;;;;;;;5093161;28;19973;-70
2022/11/25 01:58:34;;;;;;;;;;;;;;;;;;5092788;28;19912;-69
2022/11/25 02:01:00;;;;;;;;;;;;;;;;;;5094340;28;19914;-70
2022/11/25 02:03:26;;;;;;;;;;;;;;;;;;5094424;28;19962;-70
2022/11/25 02:05:52;;;;;;;;;;;;;;;;;;5093908;28;19912;-70
2022/11/25 02:08:18;;;;;;;;;;;;;;;;;;5092880;28;19912;-70
2022/11/25 02:10:44;;;;;;;;;;;;;;;;;;5094088;28;19912;-70
2022/11/25 02:13:09;;;;;;;;;;;;;;;;;;5094217;28;19912;-70
2022/11/25 02:15:35;;;;;;;;;;;;;;;;;;5094165;28;19951;-70
2022/11/25 02:18:01;;;;;;;;;;;;;;;;;;5093856;28;19908;-70
2022/11/25 02:20:27;;;;;;;;;;;;;;;;;;5094325;28;19909;-70
2022/11/25 02:22:53;;;;;;;;;;;;;;;;;;5093976;28;19919;-70
2022/11/25 02:25:19;;;;;;;;;;;;;;;;;;5093834;28;19909;-70
2022/11/25 02:27:45;;;;;;;;;;;;;;;;;;5093749;28;20435;-70
2022/11/25 02:30:12;;;;;;;;;;;;;;;;;;5094366;28;19943;-70
2022/11/25 02:32:38;;;;;;;;;;;;;;;;;;5093618;28;19915;-70
2022/11/25 02:35:04;;;;;;;;;;;;;;;;;;5092693;28;19912;-70
2022/11/25 02:37:30;;;;;;;;;;;;;;;;;;5093953;28;19915;-70
2022/11/25 02:39:56;;;;;;;;;;;;;;;;;;5093478;28;19915;-70
2022/11/25 02:42:22;;;;;;;;;;;;;;;;;;5094142;28;19909;-70
2022/11/25 02:44:48;;;;;;;;;;;;;;;;;;5093842;28;19908;-69
2022/11/25 02:47:14;;;;;;;;;;;;;;;;;;5092224;28;19912;-70
2022/11/25 02:49:40;;;;;;;;;;;;;;;;;;5093765;28;19916;-70
2022/11/25 02:52:06;;;;;;;;;;;;;;;;;;5093805;28;19917;-70
2022/11/25 02:54:32;;;;;;;;;;;;;;;;;;5093395;28;19908;-69
2022/11/25 02:56:58;;;;;;;;;;;;;;;;;;5093794;28;20020;-70
2022/11/25 02:59:24;;;;;;;;;;;;;;;;;;5093964;28;20027;-69
2022/11/25 03:01:50;;;;;;;;;;;;;;;;;;5092014;28;19947;-70
2022/11/25 03:04:16;;;;;;;;;;;;;;;;;;5093655;28;19912;-70
2022/11/25 03:06:42;;;;;;;;;;;;;;;;;;5093695;28;19969;-70
2022/11/25 03:09:07;;;;;;;;;;;;;;;;;;5093171;28;20364;-70
2022/11/25 03:14:18;;;;;;;;;;;;;;;;;;5093267;28;19931;-70
2022/11/25 03:16:44;;;;;;;;;;;;;;;;;;5093576;28;20352;-70
2022/11/25 03:19:10;;;;;;;;;;;;;;;;;;5093545;28;20279;-70
2022/11/25 03:21:36;;;;;;;;;;;;;;;;;;5093139;28;19970;-69
2022/11/25 03:24:02;;;;;;;;;;;;;;;;;;5093472;28;19908;-70
2022/11/25 03:26:28;;;;;;;;;;;;;;;;;;5093465;28;19963;-70
2022/11/25 03:28:54;;;;;;;;;;;;;;;;;;5092830;28;19941;-70
2022/11/25 03:31:20;;;;;;;;;;;;;;;;;;5093370;28;19909;-70
2022/11/25 03:33:46;;;;;;;;;;;;;;;;;;5092181;28;20015;-70
2022/11/25 03:36:12;;;;;;;;;;;;;;;;;;5095398;28;19912;-70
2022/11/25 03:38:38;;;;;;;;;;;;;;;;;;5097047;28;19947;-70
2022/11/25 03:41:04;;;;;;;;;;;;;;;;;;5095712;28;20316;-70
2022/11/25 03:43:30;;;;;;;;;;;;;;;;;;5096623;28;20302;-70
2022/11/25 03:45:55;;;;;;;;;;;;;;;;;;5096938;28;19915;-70
2022/11/25 03:48:21;;;;;;;;;;;;;;;;;;5096793;28;19912;-70
2022/11/25 03:50:48;;;;;;;;;;;;;;;;;;5096428;28;19953;-70
2022/11/25 03:53:14;;;;;;;;;;;;;;;;;;5096868;28;19913;-70
2022/11/25 03:55:40;;;;;;;;;;;;;;;;;;5096682;28;19915;-70
2022/11/25 03:58:06;;;;;;;;;;;;;;;;;;5096349;28;19912;-70
2022/11/25 04:00:32;;;;;;;;;;;;;;;;;;5096711;28;19961;-69
2022/11/25 04:02:58;;;;;;;;;;;;;;;;;;5096537;28;19908;-69
2022/11/25 04:05:24;;;;;;;;;;;;;;;;;;5096114;28;19958;-69
2022/11/25 04:07:50;;;;;;;;;;;;;;;;;;5095158;28;19919;-69
2022/11/25 04:10:16;;;;;;;;;;;;;;;;;;5096304;28;19943;-69
2022/11/25 04:12:45;;;;;;;;;;;;;;;;;;5096384;28;19930;-69
2022/11/25 04:15:11;;;;;;;;;;;;;;;;;;5096348;28;20003;-69
2022/11/25 04:17:37;;;;;;;;;;;;;;;;;;5095843;28;19908;-69
2022/11/25 04:20:03;;;;;;;;;;;;;;;;;;5096294;28;20387;-69
2022/11/25 04:22:29;;;;;;;;;;;;;;;;;;5096257;28;19909;-70
2022/11/25 04:24:55;;;;;;;;;;;;;;;;;;5095811;28;19961;-70
2022/11/25 04:27:21;;;;;;;;;;;;;;;;;;5096209;28;20419;-69
2022/11/25 04:29:47;;;;;;;;;;;;;;;;;;5096000;28;19919;-70
2022/11/25 04:32:13;;;;;;;;;;;;;;;;;;5095664;28;19908;-70
2022/11/25 04:34:39;;;;;;;;;;;;;;;;;;5096004;28;19915;-70
2022/11/25 04:37:05;;;;;;;;;;;;;;;;;;5095951;28;19994;-70
2022/11/25 04:39:31;;;;;;;;;;;;;;;;;;5095524;28;19909;-70
2022/11/25 04:44:41;;;;;;;;;;;;;;;;;;5095874;28;19962;-70
2022/11/25 04:47:07;;;;;;;;;;;;;;;;;;5095458;28;19912;-70
2022/11/25 04:49:33;;;;;;;;;;;;;;;;;;5095645;28;19924;-69
2022/11/25 04:51:59;;;;;;;;;;;;;;;;;;5095686;28;19944;-70
2022/11/25 04:54:25;;;;;;;;;;;;;;;;;;5095264;28;19908;-69
2022/11/25 04:56:51;;;;;;;;;;;;;;;;;;5095558;28;19934;-70
2022/11/25 05:02:01;;;;;;;;;;;;;;;;;;5096451;28;19915;-70
2022/11/25 05:04:27;;;;;;;;;;;;;;;;;;5094061;28;20006;-70
2022/11/25 05:06:53;;;;;;;;;;;;;;;;;;5093689;28;19912;-70
2022/11/25 05:09:19;;;;;;;;;;;;;;;;;;5095410;28;19968;-70
2022/11/25 05:11:45;;;;;;;;;;;;;;;;;;5095282;28;20279;-70
2022/11/25 05:14:11;;;;;;;;;;;;;;;;;;5094779;28;19930;-70
2022/11/25 05:16:37;;;;;;;;;;;;;;;;;;5095171;28;19908;-70
2022/11/25 05:19:03;;;;;;;;;;;;;;;;;;5095327;28;20314;-70
2022/11/25 05:21:29;;;;;;;;;;;;;;;;;;5094720;28;20287;-69
2022/11/25 05:23:55;;;;;;;;;;;;;;;;;;5094984;28;19967;-70
2022/11/25 05:26:21;;;;;;;;;;;;;;;;;;5094923;28;19962;-70
2022/11/25 05:28:47;;;;;;;;;;;;;;;;;;5094214;28;19920;-70
2022/11/25 05:31:13;;;;;;;;;;;;;;;;;;5094778;28;19915;-70
2022/11/25 05:33:39;;;;;;;;;;;;;;;;;;5094933;28;20012;-70
2022/11/25 05:36:05;;;;;;;;;;;;;;;;;;5094432;28;19909;-70
2022/11/25 05:38:31;;;;;;;;;;;;;;;;;;5095008;28;19915;-69
2022/11/25 05:40:57;;;;;;;;;;;;;;;;;;5094667;28;19961;-70
2022/11/25 05:43:23;;;;;;;;;;;;;;;;;;5094274;28;19908;-69
2022/11/25 05:45:48;;;;;;;;;;;;;;;;;;5094623;28;19987;-69
2022/11/25 05:48:14;;;;;;;;;;;;;;;;;;5094683;28;19916;-70
2022/11/25 05:50:40;;;;;;;;;;;;;;;;;;5094211;28;19908;-69
2022/11/25 05:53:06;;;;;;;;;;;;;;;;;;5094481;28;19908;-69
2022/11/25 05:55:32;;;;;;;;;;;;;;;;;;5093169;28;19953;-69
2022/11/25 05:57:58;;;;;;;;;;;;;;;;;;5093694;28;20314;-69
2022/11/25 06:00:24;;;;;;;;;;;;;;;;;;5094378;28;19908;-69
2022/11/25 06:02:50;;;;;;;;;;;;;;;;;;5094494;28;19909;-69
2022/11/25 06:05:16;;;;;;;;;;;;;;;;;;5094280;28;19908;-69
2022/11/25 06:07:42;;;;;;;;;;;;;;;;;;5094182;28;19915;-69
2022/11/25 06:10:08;;;;;;;;;;;;;;;;;;5093718;28;19908;-69
2022/11/25 06:12:34;;;;;;;;;;;;;;;;;;5094493;28;20002;-69
2022/11/25 06:15:00;;;;;;;;;;;;;;;;;;5093702;28;20368;-69
2022/11/25 06:17:26;;;;;;;;;;;;;;;;;;5099248;28;20316;-69
2022/11/25 06:19:52;;;;;;;;;;;;;;;;;;5093116;28;20423;-69
2022/11/25 06:22:18;;;;;;;;;;;;;;;;;;5090349;28;19931;-70
2022/11/25 06:24:44;;;;;;;;;;;;;;;;;;5090216;28;19912;-71
2022/11/25 06:27:10;;;;;;;;;;;;;;;;;;5085213;28;19919;-72
2022/11/25 06:29:36;;;;;;;;;;;;;;;;;;5092297;28;19924;-70
2022/11/25 06:32:01;;;;;;;;;;;;;;;;;;5088987;28;19918;-69
2022/11/25 06:34:28;;;;;;;;;;;;;;;;;;5083878;28;20348;-66
2022/11/25 06:36:55;;;;;;;;;;;;;;;;;;5086844;28;19964;-68
2022/11/25 06:39:21;;;;;;;;;;;;;;;;;;5090109;28;20280;-69
2022/11/25 06:41:47;;;;;;;;;;;;;;;;;;5089762;28;20387;-67
2022/11/25 06:44:13;;;;;;;;;;;;;;;;;;5088681;28;19954;-67
2022/11/25 06:46:39;;;;;;;;;;;;;;;;;;5087875;28;19965;-67
2022/11/25 06:49:06;;;;;;;;;;;;;;;;;;5088789;28;19916;-66
2022/11/25 06:51:32;;;;;;;;;;;;;;;;;;5087886;28;19918;-66
2022/11/25 06:53:58;;;;;;;;;;;;;;;;;;5087580;28;19909;-68
2022/11/25 06:56:25;;;;;;;;;;;;;;;;;;5090421;28;19919;-68
2022/11/25 06:58:51;;;;;;;;;;;;;;;;;;5092544;28;20367;-68
2022/11/25 07:01:17;;;;;;;;;;;;;;;;;;5086384;28;19916;-66
2022/11/25 07:03:43;;;;;;;;;;;;;;;;;;5090666;28;19912;-67
2022/11/25 07:06:09;;;;;;;;;;;;;;;;;;5084415;28;19908;-67
2022/11/25 07:08:35;;;;;;;;;;;;;;;;;;5105548;28;20486;-69
2022/11/25 07:11:01;;;;;;;;;;;;;;;;;;5113523;27;19908;-67
2022/11/25 07:13:27;;;;;;;;;;;;;;;;;;5090759;28;20405;-68
2022/11/25 07:15:53;;;;;;;;;;;;;;;;;;5096923;28;19916;-68
2022/11/25 07:18:19;;;;;;;;;;;;;;;;;;5097554;28;20016;-68
2022/11/25 07:20:48;;;;;;;;;;;;;;;;;;5105347;28;20499;-68
2022/11/25 07:23:14;;;;;;;;;;;;;;;;;;5095732;28;19919;-68
2022/11/25 07:25:40;;;;;;;;;;;;;;;;;;5095370;28;19908;-66
2022/11/25 07:28:07;;;;;;;;;;;;;;;;;;5090571;28;20283;-67
2022/11/25 07:30:35;;;;;;;;;;;;;;;;;;5096658;28;19908;-68
2022/11/25 07:33:06;;;;;;;;;;;;;;;;;;5089845;28;20002;-67
2022/11/25 07:35:33;;;;;;;;;;;;;;;;;;5095935;28;20426;-67
2022/11/25 07:38:03;;;;;;;;;;;;;;;;;;5096280;28;19980;-66
2022/11/25 07:40:31;;;;;;;;;;;;;;;;;;5095665;28;20391;-67
2022/11/25 07:42:59;;;;;;;;;;;;;;;;;;5094855;28;19916;-66
2022/11/25 07:45:25;;;;;;;;;;;;;;;;;;5095872;28;19908;-66
2022/11/25 07:47:53;;;;;;;;;;;;;;;;;;5095370;28;19925;-66
2022/11/25 07:50:20;;;;;;;;;;;;;;;;;;5093928;28;19920;-67
2022/11/25 07:52:46;;;;;;;;;;;;;;;;;;5093769;28;20027;-66
2022/11/25 07:55:13;;;;;;;;;;;;;;;;;;5093499;28;20011;-65
2022/11/25 07:57:39;;;;;;;;;;;;;;;;;;5085173;28;19944;-66
2022/11/25 08:00:05;;;;;;;;;;;;;;;;;;5087747;28;19954;-66
2022/11/25 08:02:34;;;;;;;;;;;;;;;;;;5094741;28;19915;-65
2022/11/25 08:05:01;;;;;;;;;;;;;;;;;;5094141;28;19915;-68
2022/11/25 08:07:27;;;;;;;;;;;;;;;;;;5092976;28;20368;-67
2022/11/25 08:09:54;;;;;;;;;;;;;;;;;;5093411;28;19920;-66
2022/11/25 08:12:20;;;;;;;;;;;;;;;;;;5093350;28;19912;-66
2022/11/25 08:14:46;;;;;;;;;;;;;;;;;;5094000;28;19908;-67
2022/11/25 08:17:12;;;;;;;;;;;;;;;;;;5093621;28;20045;-68
2022/11/25 08:19:39;;;;;;;;;;;;;;;;;;5094924;28;19908;-68
2022/11/25 08:22:05;;;;;;;;;;;;;;;;;;5093544;28;20120;-68
2022/11/25 08:24:31;;;;;;;;;;;;;;;;;;5094578;28;19994;-67
2022/11/25 08:27:00;;;;;;;;;;;;;;;;;;5093989;28;19939;-68
2022/11/25 08:29:28;;;;;;;;;;;;;;;;;;5094722;28;19920;-67
2022/11/25 08:32:00;;;;;;;;;;;;;;;;;;5074223;28;19985;-67
2022/11/25 08:34:26;;;;;;;;;;;;;;;;;;5056165;28;20352;-67
2022/11/25 08:36:52;;;;;;;;;;;;;;;;;;5073017;28;19908;-68
2022/11/25 08:39:28;;;;;;;;;;;;;;;;;;5074175;28;19908;-67
2022/11/25 08:41:57;;;;;;;;;;;;;;;;;;5073324;28;19924;-69
2022/11/25 08:44:27;;;;;;;;;;;;;;;;;;5066355;28;20361;-68
2022/11/25 08:46:53;;;;;;;;;;;;;;;;;;5067522;28;19999;-68
2022/11/25 08:49:22;;;;;;;;;;;;;;;;;;5074266;28;19917;-66
2022/11/25 08:51:52;;;;;;;;;;;;;;;;;;5054285;28;19912;-66
2022/11/25 08:54:18;;;;;;;;;;;;;;;;;;5073179;28;19961;-68
2022/11/25 08:56:45;;;;;;;;;;;;;;;;;;5071549;28;19912;-68
2022/11/25 08:59:12;;;;;;;;;;;;;;;;;;5072552;28;20053;-68
2022/11/25 09:01:38;;;;;;;;;;;;;;;;;;5071920;28;20012;-69
2022/11/25 09:04:41;;;;;;;;;;;;;;;;;;5100799;27;19916;-68
2022/11/25 09:07:14;;;;;;;;;;;;;;;;;;5098068;28;19912;-69
2022/11/25 09:09:40;;;;;;;;;;;;;;;;;;5066097;28;20357;-68
2022/11/25 09:12:12;;;;;;;;;;;;;;;;;;5066713;28;19909;-67
2022/11/25 09:14:39;;;;;;;;;;;;;;;;;;5068039;28;20284;-67
2022/11/25 09:17:10;;;;;;;;;;;;;;;;;;5092540;28;20543;-68
2022/11/25 09:19:39;;;;;;;;;;;;;;;;;;5089446;28;19939;-68
2022/11/25 09:22:05;;;;;;;;;;;;;;;;;;5098501;28;19916;-67
2022/11/25 09:24:31;;;;;;;;;;;;;;;;;;5089062;28;19908;-68
2022/11/25 09:26:58;;;;;;;;;;;;;;;;;;5093519;28;20264;-69
2022/11/25 09:29:28;;;;;;;;;;;;;;;;;;5098689;28;19912;-68
2022/11/25 09:31:55;;;;;;;;;;;;;;;;;;5086982;28;19965;-69
2022/11/25 09:34:21;;;;;;;;;;;;;;;;;;5075311;28;20319;-67
2022/11/25 09:36:48;;;;;;;;;;;;;;;;;;5068745;28;20025;-67
2022/11/25 09:39:14;;;;;;;;;;;;;;;;;;5068583;28;19915;-70
2022/11/25 09:47:39;;;;;;;;;;;;;;;;;;5109778;27;19916;-67
2022/11/25 09:50:06;;;;;;;;;;;;;;;;;;5109176;28;19912;-69
2022/11/25 09:52:32;;;;;;;;;;;;;;;;;;5108905;28;19914;-68
2022/11/25 09:54:58;;;;;;;;;;;;;;;;;;5109269;28;20002;-69
2022/11/25 09:57:25;;;;;;;;;;;;;;;;;;5109640;28;19912;-68
2022/11/25 10:02:43;;;;;;;;;;;;;;;;;;5089962;27;19922;-68
2022/11/25 10:10:36;;;;;;;;;;;;;;;;;;4802006;27;9240330;-67
2022/11/25 10:15:27;;;;;;;;;;;;;;;;;;4280572;27;24735216;-67
2022/11/25 10:17:53;;;;;;;;;;;;;;;;;;5132691;27;20047;-67
2022/11/25 10:20:24;;;;;;;;;;;;;;;;;;5151783;27;19914;-67
2022/11/25 10:23:26;;;;;;;;;;;;;;;;;;5109199;27;19918;-66
2022/11/25 10:25:52;;;;;;;;;;;;;;;;;;5101670;28;19939;-67
2022/11/25 10:33:26;;;;;;;;;;;;;;;;;;5130048;28;19930;-65
2022/11/25 10:36:20;;;;;;;;;;;;;;;;;;5109787;27;20321;-68
2022/11/25 10:38:49;;;;;;;;;;;;;;;;;;5089557;28;20266;-67
2022/11/25 10:41:15;;;;;;;;;;;;;;;;;;5090252;28;19936;-68
2022/11/25 10:43:45;;;;;;;;;;;;;;;;;;5095394;28;19915;-67
2022/11/25 10:46:14;;;;;;;;;;;;;;;;;;5105056;28;19951;-68
2022/11/25 10:51:03;;;;;;;;;;;;;;;;;;4801819;27;9274089;-66
2022/11/25 10:58:52;;;;;;;;;;;;;;;;;;5151138;27;19912;-68
2022/11/25 11:01:19;;;;;;;;;;;;;;;;;;5149506;27;20390;-67
2022/11/25 11:04:32;;;;;;;;;;;;;;;;;;4781067;27;10703091;-67
2022/11/25 11:14:44;;;;;;;;;;;;;;;;;;4870789;27;7252037;-72
2022/11/25 11:17:24;;;;;;;;;;;;;;;;;;5112391;28;19911;-71
2022/11/25 11:19:51;;;;;;;;;;;;;;;;;;5129856;28;19953;-72
2022/11/25 11:22:24;;;;;;;;;;;;;;;;;;5131381;28;19939;-70
2022/11/25 11:24:55;;;;;;;;;;;;;;;;;;5123307;28;19961;-70
2022/11/25 11:27:21;;;;;;;;;;;;;;;;;;5110101;28;19919;-70
2022/11/25 11:32:04;;;;;;;;;;;;;;;;;;5089554;28;19913;-67
2022/11/25 11:34:31;;;;;;;;;;;;;;;;;;5089063;28;19920;-68
2022/11/25 11:36:57;;;;;;;;;;;;;;;;;;5089116;28;19912;-68
2022/11/25 11:39:26;;;;;;;;;;;;;;;;;;5090132;28;20640;-73
2022/11/25 11:44:17;;;;;;;;;;;;;;;;;;5151159;27;19934;-77
2022/11/25 11:47:49;;;;;;;;;;;;;;;;;;4746984;27;10423018;-82
2022/11/25 11:50:15;;;;;;;;;;;;;;;;;;5109892;28;19919;-79
2022/11/25 11:52:41;;;;;;;;;;;;;;;;;;5094409;28;19995;-80
2022/11/25 11:55:07;;;;;;;;;;;;;;;;;;5103960;28;19919;-82
2022/11/25 12:02:51;;;;;;;;;;;;;;;;;;5076853;27;19917;-71
2022/11/25 12:14:30;;;;;;;;;;;;;;;;;;5091712;27;2445661;-70
2022/11/25 12:19:34;;;;;;;;;;;;;;;;;;5153134;27;19994;-69
2022/11/25 12:22:00;;;;;;;;;;;;;;;;;;5152806;27;19992;-72
2022/11/25 12:24:27;;;;;;;;;;;;;;;;;;5144850;27;19960;-72
2022/11/25 12:27:36;;;;;;;;;;;;;;;;;;5091104;27;19919;-71
2022/11/25 12:31:29;;;;;;;;;;;;;;;;;;5086913;27;19916;-73
2022/11/25 12:33:55;;;;;;;;;;;;;;;;;;5085683;28;19962;-73
2022/11/25 12:36:21;;;;;;;;;;;;;;;;;;5088022;28;19916;-77
2022/11/25 12:38:47;;;;;;;;;;;;;;;;;;5082848;28;19908;-75
2022/11/25 12:42:24;;;;;;;;;;;;;;;;;;5081171;27;19920;-75
2022/11/25 12:44:50;;;;;;;;;;;;;;;;;;5086878;28;19912;-70
2022/11/25 12:47:22;;;;;;;;;;;;;;;;;;5084981;28;20328;-69
2022/11/25 12:49:48;;;;;;;;;;;;;;;;;;5088541;28;19908;-69
2022/11/25 12:52:15;;;;;;;;;;;;;;;;;;5086670;28;19920;-69
2022/11/25 12:54:41;;;;;;;;;;;;;;;;;;5089313;28;19908;-68
2022/11/25 12:57:07;;;;;;;;;;;;;;;;;;5089228;28;20430;-68
2022/11/25 12:59:35;;;;;;;;;;;;;;;;;;5083861;28;21128;-68
2022/11/25 13:07:00;;;;;;;;;;;;;;;;;;5133185;27;19911;-69
2022/11/25 13:09:27;;;;;;;;;;;;;;;;;;5130353;28;19912;-69
2022/11/25 13:11:55;;;;;;;;;;;;;;;;;;5131313;28;19907;-71
2022/11/25 13:14:24;;;;;;;;;;;;;;;;;;5131206;28;20008;-69
2022/11/25 13:20:05;;;;;;;;;;;;;;;;;;5135200;27;19916;-72
2022/11/25 13:22:34;;;;;;;;;;;;;;;;;;5129309;28;19915;-73
2022/11/25 13:26:21;;;;;;;;;;;;;;;;;;4870866;27;8101532;-68
2022/11/25 13:28:50;;;;;;;;;;;;;;;;;;5148426;27;19998;-69
2022/11/25 13:31:19;;;;;;;;;;;;;;;;;;5149722;27;19972;-69
2022/11/25 13:33:45;;;;;;;;;;;;;;;;;;5149929;27;19912;-70
2022/11/25 13:36:27;;;;;;;;;;;;;;;;;;5022349;27;3149133;-71
2022/11/25 13:38:53;;;;;;;;;;;;;;;;;;5126693;27;20336;-72
2022/11/25 13:44:24;;;;;;;;;;;;;;;;;;5086015;27;20365;-71
2022/11/25 13:46:51;;;;;;;;;;;;;;;;;;5086955;28;19917;-71
2022/11/25 13:49:17;;;;;;;;;;;;;;;;;;5085464;28;19908;-71
2022/11/25 13:51:43;;;;;;;;;;;;;;;;;;5087276;28;19954;-72
2022/11/25 13:55:55;;;;;;;;;;;;;;;;;;5089297;28;19912;-75
2022/11/25 13:58:21;;;;;;;;;;;;;;;;;;5088102;28;19916;-74
2022/11/25 14:00:47;;;;;;;;;;;;;;;;;;5089417;28;19919;-74
2022/11/25 14:03:13;;;;;;;;;;;;;;;;;;5087802;28;19931;-78
2022/11/25 14:05:39;;;;;;;;;;;;;;;;;;5090181;28;19917;-76
2022/11/25 14:10:38;;;;;;;;;;;;;;;;;;5089231;27;19919;-64
2022/11/25 14:13:04;;;;;;;;;;;;;;;;;;5089307;28;19966;-64
2022/11/25 14:15:30;;;;;;;;;;;;;;;;;;5087404;28;19912;-70
2022/11/25 14:18:57;;;;;;;;;;;;;;;;;;5173977;27;19911;-66
2022/11/25 14:21:23;;;;;;;;;;;;;;;;;;5173450;27;19977;-66
2022/11/25 14:23:49;;;;;;;;;;;;;;;;;;5173330;27;19994;-66
2022/11/25 14:26:15;;;;;;;;;;;;;;;;;;5173606;27;19997;-66
2022/11/25 14:28:41;;;;;;;;;;;;;;;;;;5173594;27;19952;-66
2022/11/25 14:31:07;;;;;;;;;;;;;;;;;;5154347;27;19907;-66
2022/11/25 14:33:33;;;;;;;;;;;;;;;;;;5173514;27;19911;-67
2022/11/25 14:35:59;;;;;;;;;;;;;;;;;;5173444;27;19915;-67
2022/11/25 14:39:46;;;;;;;;;;;;;;;;;;5092154;27;19913;-66
2022/11/25 14:42:12;;;;;;;;;;;;;;;;;;5091287;28;19918;-66
2022/11/25 14:44:38;;;;;;;;;;;;;;;;;;5091020;28;20431;-66
2022/11/25 14:51:25;;;;;;;;;;;;;;;;;;5090991;27;19919;-66
2022/11/25 14:53:51;;;;;;;;;;;;;;;;;;5090061;28;19912;-68
2022/11/25 14:56:16;;;;;;;;;;;;;;;;;;5091297;28;19915;-66
2022/11/25 14:58:42;;;;;;;;;;;;;;;;;;5091037;28;19995;-68
2022/11/25 15:01:08;;;;;;;;;;;;;;;;;;5091028;28;19962;-68
2022/11/25 15:04:05;;;;;;;;;;;;;;;;;;5092179;27;19918;-66
2022/11/25 15:06:31;;;;;;;;;;;;;;;;;;5089581;28;20010;-66
2022/11/25 15:11:25;;;;;;;;;;;;;;;;;;5091676;27;19957;-68
2022/11/25 15:13:51;;;;;;;;;;;;;;;;;;5091432;28;20382;-68
2022/11/25 15:16:17;;;;;;;;;;;;;;;;;;5091283;28;19909;-68
2022/11/25 15:18:43;;;;;;;;;;;;;;;;;;5090858;28;19909;-66
2022/11/25 15:21:09;;;;;;;;;;;;;;;;;;5089934;28;19916;-66
2022/11/25 15:23:35;;;;;;;;;;;;;;;;;;5089665;28;20008;-66
2022/11/25 15:26:01;;;;;;;;;;;;;;;;;;5090647;28;19913;-68
2022/11/25 15:28:27;;;;;;;;;;;;;;;;;;5091045;28;19954;-67
2022/11/25 15:30:53;;;;;;;;;;;;;;;;;;5090882;28;19917;-68
2022/11/25 15:33:19;;;;;;;;;;;;;;;;;;5090439;28;19915;-67
2022/11/25 15:35:45;;;;;;;;;;;;;;;;;;5089608;28;19927;-68
2022/11/25 15:38:11;;;;;;;;;;;;;;;;;;5090881;28;20380;-68
2022/11/25 15:40:39;;;;;;;;;;;;;;;;;;5090665;28;20284;-68
2022/11/25 15:43:05;;;;;;;;;;;;;;;;;;5090714;28;19916;-68
2022/11/25 15:45:32;;;;;;;;;;;;;;;;;;5090786;28;20395;-67
2022/11/25 15:47:58;;;;;;;;;;;;;;;;;;5090251;28;19923;-67
2022/11/25 15:50:24;;;;;;;;;;;;;;;;;;5090767;28;19917;-67
2022/11/25 15:52:50;;;;;;;;;;;;;;;;;;5090658;28;19915;-68
2022/11/25 15:55:16;;;;;;;;;;;;;;;;;;5090307;28;19908;-68
2022/11/25 15:57:42;;;;;;;;;;;;;;;;;;5090534;28;19915;-67
2022/11/25 16:00:08;;;;;;;;;;;;;;;;;;5090303;28;19915;-67
2022/11/25 16:02:33;;;;;;;;;;;;;;;;;;5090069;28;19909;-67
2022/11/25 16:04:59;;;;;;;;;;;;;;;;;;5089098;28;20333;-67
2022/11/25 16:07:26;;;;;;;;;;;;;;;;;;5090244;28;19931;-67
2022/11/25 16:09:52;;;;;;;;;;;;;;;;;;5097391;28;19920;-67
2022/11/25 16:12:18;;;;;;;;;;;;;;;;;;5110508;28;19908;-67
2022/11/25 16:14:44;;;;;;;;;;;;;;;;;;5110093;28;19915;-68
2022/11/25 16:17:10;;;;;;;;;;;;;;;;;;5092171;28;20376;-68
2022/11/25 16:19:36;;;;;;;;;;;;;;;;;;5110569;28;19908;-67
2022/11/25 16:22:02;;;;;;;;;;;;;;;;;;5100358;28;20334;-68
2022/11/25 16:24:28;;;;;;;;;;;;;;;;;;5096761;28;19916;-67
2022/11/25 16:26:54;;;;;;;;;;;;;;;;;;5096781;28;19908;-68
2022/11/25 16:29:20;;;;;;;;;;;;;;;;;;5096112;28;20383;-68
2022/11/25 16:31:46;;;;;;;;;;;;;;;;;;5096948;28;20391;-68
2022/11/25 16:34:12;;;;;;;;;;;;;;;;;;5096857;28;19912;-68
2022/11/25 16:36:38;;;;;;;;;;;;;;;;;;5096164;28;20379;-68
2022/11/25 16:39:04;;;;;;;;;;;;;;;;;;5078339;28;19912;-68
2022/11/25 16:41:30;;;;;;;;;;;;;;;;;;5096465;28;19931;-68
2022/11/25 16:43:55;;;;;;;;;;;;;;;;;;5096174;28;19916;-68
2022/11/25 16:46:21;;;;;;;;;;;;;;;;;;5096381;28;19908;-68
2022/11/25 16:48:47;;;;;;;;;;;;;;;;;;5096317;28;19912;-68
2022/11/25 16:51:13;;;;;;;;;;;;;;;;;;5095785;28;20011;-68
2022/11/25 16:53:39;;;;;;;;;;;;;;;;;;5096167;28;20292;-68
2022/11/25 16:56:06;;;;;;;;;;;;;;;;;;5096129;28;19908;-68
2022/11/25 16:58:32;;;;;;;;;;;;;;;;;;5095640;28;20253;-68
2022/11/25 17:00:57;;;;;;;;;;;;;;;;;;5096101;28;19908;-68
2022/11/25 17:03:25;;;;;;;;;;;;;;;;;;5096168;28;19908;-68
2022/11/25 17:05:52;;;;;;;;;;;;;;;;;;5076514;28;20364;-68
2022/11/25 17:08:18;;;;;;;;;;;;;;;;;;5095854;28;19908;-67
2022/11/25 17:10:44;;;;;;;;;;;;;;;;;;5095680;28;19965;-68
2022/11/25 17:13:10;;;;;;;;;;;;;;;;;;5095481;28;19909;-68
2022/11/25 17:15:36;;;;;;;;;;;;;;;;;;5095726;28;19919;-68
2022/11/25 17:18:02;;;;;;;;;;;;;;;;;;5095405;28;19908;-67
2022/11/25 17:20:28;;;;;;;;;;;;;;;;;;5096012;28;19919;-66
2022/11/25 17:22:53;;;;;;;;;;;;;;;;;;5095597;28;19908;-66
2022/11/25 17:25:22;;;;;;;;;;;;;;;;;;5095466;28;19999;-67
2022/11/25 17:27:48;;;;;;;;;;;;;;;;;;5077380;28;20318;-67
2022/11/25 17:30:14;;;;;;;;;;;;;;;;;;5095398;28;19946;-67
2022/11/25 17:32:40;;;;;;;;;;;;;;;;;;5094366;28;20310;-66
2022/11/25 17:35:06;;;;;;;;;;;;;;;;;;5095193;28;19908;-67
2022/11/25 17:37:32;;;;;;;;;;;;;;;;;;5095259;28;19915;-67
2022/11/25 17:39:58;;;;;;;;;;;;;;;;;;5076782;28;19914;-67
2022/11/25 17:42:24;;;;;;;;;;;;;;;;;;5077043;28;19934;-67
2022/11/25 17:44:50;;;;;;;;;;;;;;;;;;5077004;28;19909;-66
2022/11/25 17:47:16;;;;;;;;;;;;;;;;;;5076662;28;20025;-66
2022/11/25 17:49:44;;;;;;;;;;;;;;;;;;5095079;28;19923;-67
2022/11/25 17:52:10;;;;;;;;;;;;;;;;;;5095152;28;20006;-66
2022/11/25 17:54:36;;;;;;;;;;;;;;;;;;5094607;28;20486;-66
2022/11/25 17:57:02;;;;;;;;;;;;;;;;;;5095026;28;20292;-66
2022/11/25 17:59:28;;;;;;;;;;;;;;;;;;5094908;28;19908;-67
2022/11/25 18:01:54;;;;;;;;;;;;;;;;;;5094504;28;19961;-66
2022/11/25 18:04:20;;;;;;;;;;;;;;;;;;5094931;28;19908;-66
2022/11/25 18:06:46;;;;;;;;;;;;;;;;;;5094344;28;19908;-66
2022/11/25 18:09:12;;;;;;;;;;;;;;;;;;5094111;28;20316;-66
2022/11/25 18:11:38;;;;;;;;;;;;;;;;;;5094626;28;19909;-67
2022/11/25 18:14:04;;;;;;;;;;;;;;;;;;5094540;28;19912;-65
2022/11/25 18:16:32;;;;;;;;;;;;;;;;;;5094423;28;19915;-66
2022/11/25 18:18:58;;;;;;;;;;;;;;;;;;5094590;28;19916;-65
2022/11/25 18:21:25;;;;;;;;;;;;;;;;;;5094054;28;19908;-66